Дата Пункты Температура Давл., мм. Влажн., % Ветер Погодные явления
Воздуха Воды Направл. Скорость
27.12.14 04:00 Одесса -3.0 4.0 751 98 Пн 10 17 часов
27.12.14 01:00 Одесса -2.0 4.0 752 99 Пн 10 14 часов
27.12.14 10:00 Одесса -2.0 5.0 755 99 С 8 11 часов
27.12.14 07:00 Одесса -1.0 5.0 756 97 Пн-С 9 08 часов
27.12.14 04:00 Одесса 1.0 5.0 758 85 Пн-С 11 05 часов
27.12.14 01:00 Одесса 2.0 5.0 759 83 Пн-С 10 02 часа
26.12.14 10:00 Одесса 4.0 5.0 760 92 Пн-С 8 23 часа
26.12.14 07:00 Одесса 4.0 5.0 761 94 Пн-С 5 20 часов
26.12.14 04:00 Одесса 4.0 5.0 761 85 Пн-С 5 17 часов
26.12.14 01:00 Одесса 5.0 5.0 760 81 Пн-С 3 14 часов
26.12.14 10:00 Одесса 5.0 5.0 761 77 Пн 3 11 часов
26.12.14 07:00 Одесса 5.0 5.0 760 80 Пн-З 1 08 часов
26.12.14 04:00 Одесса 6.0 5.0 759 73 Пн-З 2 05 часов
26.12.14 01:00 Одесса 7.0 5.0 759 70 Пн-З 2 02 часа
25.12.14 10:00 Одесса 8.0 5.0 759 66 З 1 23 часа
25.12.14 07:00 Одесса 9.0 5.0 758 62 З 2 20 часов
25.12.14 04:00 Одесса 8.0 5.0 757 68 З 2 17 часов
25.12.14 01:00 Одесса 11.0 5.0 757 56 Пн-З 2 14 часов
25.12.14 10:00 Одесса 11.0 5.0 757 47 Пн-З 2 11 часов
25.12.14 07:00 Одесса 4.0 5.0 756 71 З 3 08 часов
Количество строк
471 472 473 474 475 476 477 478 479 480
Page 472 of 511